Spirit Of Vi — CFL2070 — position and weather

sailwx.info

Track history (hours):
 
Tides and Currents Weather Stations Pressure Air Temp Water Temp Dewpoint Dewpoint Depression Visibility Wind Speed Wind Dir Waves Ship Positions

Spirit Of Vi

Last reported at 2017-Dec-11 17:00 UTC. Time now 2017-Dec-14 15:09 UTC.
Position N 49°00' W 123°08'.

Length 168 m; draft 5 m.

Type: Ship. MMSI: 316001269.

Date/timePositionNaut miles runAvg speedWind from/ knotsBaromVisibWave heightAir tempDewpointWater temp
2017-Dec-11 17:00N 49°00' W 123°08'0 0.0
2017-Dec-11 16:30N 49°00' W 123°08'713.5
2017-Dec-11 16:01N 48°55' W 123°14'816.1
2017-Dec-11 15:31N 48°48' W 123°21'7 0.8
2017-Dec-11 06:22N 48°41' W 123°24'616.4
2017-Dec-11 06:00N 48°47' W 123°21'815.6
2017-Dec-11 05:30N 48°54' W 123°16'816.2
2017-Dec-11 05:00N 49°00' W 123°08'0 0.2
2017-Dec-11 04:30N 49°00' W 123°08'815.5
2017-Dec-11 04:00N 48°54' W 123°15'815.7
2017-Dec-11 03:29N 48°47' W 123°21'6 5.4
2017-Dec-11 02:25N 48°42' W 123°24'717.5
2017-Dec-11 02:00N 48°48' W 123°21'816.2
2017-Dec-11 01:30N 48°55' W 123°15'713.6
2017-Dec-11 01:00N 49°00' W 123°08'0 0.1
2017-Dec-11 00:30N 49°00' W 123°08'917.5
2017-Dec-11 00:00N 48°54' W 123°17'714.7
2017-Dec-10 23:30N 48°47' W 123°21'6 5.2
2017-Dec-10 22:25N 48°42' W 123°24'717.0
2017-Dec-10 22:00N 48°48' W 123°21'816.8
2017-Dec-10 21:31N 48°56' W 123°15'713.0
2017-Dec-10 21:00N 49°00' W 123°08'0 0.2
2017-Dec-10 20:30N 49°00' W 123°08'917.6
2017-Dec-10 20:00N 48°53' W 123°17'713.5
2017-Dec-10 19:30N 48°47' W 123°21'6 6.0
2017-Dec-10 18:27N 48°41' W 123°25'714.8
2017-Dec-10 18:00N 48°47' W 123°21'915.5
2017-Dec-10 17:27N 48°55' W 123°16'713.8
2017-Dec-10 16:57N 49°00' W 123°08'0 0.1
2017-Dec-10 16:30N 49°00' W 123°08'816.7
2017-Dec-10 16:00N 48°54' W 123°16'612.9
2017-Dec-10 15:30N 48°48' W 123°21'7 0.8
2017-Dec-10 06:23N 48°41' W 123°24'616.2
2017-Dec-10 06:01N 48°47' W 123°21'816.3
2017-Dec-10 05:30N 48°55' W 123°16'815.4
2017-Dec-10 05:00N 49°00' W 123°08'0 0.0
2017-Dec-10 04:31N 49°00' W 123°08'815.0
2017-Dec-10 04:01N 48°54' W 123°15'815.6
2017-Dec-10 03:30N 48°48' W 123°21'6 6.0
2017-Dec-10 02:26N 48°42' W 123°24'717.0
2017-Dec-10 02:01N 48°48' W 123°21'815.0
2017-Dec-10 01:30N 48°55' W 123°16'714.7
2017-Dec-10 01:00N 49°00' W 123°08'0 0.0
2017-Dec-10 00:30N 49°00' W 123°08'816.0
2017-Dec-10 00:00N 48°54' W 123°16'715.0
2017-Dec-09 23:30N 48°47' W 123°21'6 6.2
2017-Dec-09 22:29N 48°42' W 123°24'817.3
2017-Dec-09 22:00N 48°49' W 123°21'816.7
2017-Dec-09 21:30N 48°56' W 123°14'510.9
2017-Dec-09 21:00N 49°00' W 123°08'1 2.9
2017-Dec-09 20:30N 48°59' W 123°09'918.9
2017-Dec-09 20:00N 48°52' W 123°18'714.3
2017-Dec-09 19:30N 48°45' W 123°22'4 4.0
2017-Dec-09 18:27N 48°41' W 123°25'714.7
2017-Dec-09 18:00N 48°48' W 123°21'815.7
2017-Dec-09 17:30N 48°55' W 123°16'815.3
2017-Dec-09 17:00N 49°00' W 123°08'0 0.0
2017-Dec-09 16:30N 49°00' W 123°08'714.6
2017-Dec-09 16:00N 48°55' W 123°15'815.5
2017-Dec-09 15:31N 48°48' W 123°21'7 0.8
2017-Dec-09 06:22N 48°41' W 123°24'616.8
2017-Dec-09 06:00N 48°47' W 123°21'816.4
2017-Dec-09 05:30N 48°55' W 123°16'815.7
2017-Dec-09 05:00N 49°00' W 123°08'0 0.0
2017-Dec-09 04:30N 49°00' W 123°08'815.9
2017-Dec-09 04:00N 48°54' W 123°15'815.1
2017-Dec-09 03:30N 48°48' W 123°21'7 6.1
2017-Dec-09 02:27N 48°42' W 123°24'717.2
2017-Dec-09 02:01N 48°49' W 123°21'815.1
2017-Dec-09 01:30N 48°55' W 123°15'713.9
2017-Dec-09 01:01N 49°00' W 123°08'0 0.2
2017-Dec-09 00:30N 49°00' W 123°08'918.1
2017-Dec-09 00:00N 48°53' W 123°17'816.1
2017-Dec-08 23:30N 48°46' W 123°22'5 5.6
2017-Dec-08 22:36N 48°41' W 123°25'1 5.7
2017-Dec-08 22:30N 48°42' W 123°24'917.8
2017-Dec-08 22:00N 48°50' W 123°21'917.4
2017-Dec-08 21:30N 48°57' W 123°13'4 9.1
2017-Dec-08 21:00N 49°00' W 123°08'2 3.1
2017-Dec-08 20:30N 48°59' W 123°09'918.8
2017-Dec-08 20:01N 48°52' W 123°18'712.4
2017-Dec-08 19:29N 48°46' W 123°21'5 4.7
2017-Dec-08 18:27N 48°41' W 123°25'715.5
2017-Dec-08 18:00N 48°48' W 123°21'714.5
2017-Dec-08 17:31N 48°55' W 123°17'815.9
2017-Dec-08 17:00N 49°00' W 123°08'0 0.1
2017-Dec-08 16:30N 49°00' W 123°08'814.3
2017-Dec-08 15:59N 48°54' W 123°15'715.7
2017-Dec-08 15:30N 48°48' W 123°21'7 0.8
2017-Dec-08 06:24N 48°41' W 123°24'716.7
2017-Dec-08 06:00N 48°48' W 123°21'815.9
2017-Dec-08 05:30N 48°55' W 123°16'714.9
2017-Dec-08 05:00N 49°00' W 123°08'0 0.0
2017-Dec-08 04:30N 49°00' W 123°08'816.6
2017-Dec-08 04:00N 48°54' W 123°16'714.1
2017-Dec-08 03:30N 48°48' W 123°21'7 6.5
2017-Dec-08 02:27N 48°41' W 123°24'716.6
2017-Dec-08 02:00N 48°49' W 123°21'714.9
2017-Dec-08 01:30N 48°55' W 123°15'714.4
2017-Dec-08 01:00N 49°00' W 123°08'0 0.3
2017-Dec-08 00:30N 49°00' W 123°08'918.5
2017-Dec-08 00:00N 48°53' W 123°17'815.7
2017-Dec-07 23:30N 48°46' W 123°21'5 4.7
2017-Dec-07 22:30N 48°42' W 123°24'917.8
2017-Dec-07 22:00N 48°50' W 123°21'816.3
2017-Dec-07 21:30N 48°57' W 123°14'5 9.9
2017-Dec-07 20:59N 49°00' W 123°08'0 0.8
2017-Dec-07 20:31N 49°00' W 123°08'918.6
2017-Dec-07 20:00N 48°53' W 123°18'713.7
2017-Dec-07 19:30N 48°47' W 123°21'5 5.1
2017-Dec-07 18:27N 48°42' W 123°24'715.9
2017-Dec-07 18:00N 48°48' W 123°21'815.0
2017-Dec-07 17:30N 48°55' W 123°16'714.9
2017-Dec-07 17:01N 49°00' W 123°08'0 0.1
2017-Dec-07 16:30N 49°00' W 123°08'816.5
2017-Dec-07 16:00N 48°54' W 123°16'815.6
2017-Dec-07 15:30N 48°47' W 123°21'612.2
2017-Dec-07 15:01N 48°41' W 123°25'0 0.0
2017-Dec-07 14:31N 48°41' W 123°25'0 0.0
2017-Dec-07 14:00N 48°41' W 123°25'0 0.0
2017-Dec-07 13:30N 48°41' W 123°25'0 0.0
2017-Dec-07 13:00N 48°41' W 123°25'0 0.0
2017-Dec-07 12:30N 48°41' W 123°25'0 0.0
2017-Dec-07 12:00N 48°41' W 123°25'0 0.0
2017-Dec-07 11:30N 48°41' W 123°25'0 0.0
2017-Dec-07 11:00N 48°41' W 123°25'0 0.0
2017-Dec-07 10:27N 48°41' W 123°25'0 0.0
2017-Dec-07 10:00N 48°41' W 123°25'0 0.0
2017-Dec-07 09:30N 48°41' W 123°25'0 0.0
2017-Dec-07 09:00N 48°41' W 123°25'0 0.0
2017-Dec-07 08:30N 48°41' W 123°25'0 0.0
2017-Dec-07 08:00N 48°41' W 123°25'0 0.0
2017-Dec-07 07:30N 48°41' W 123°25'0 0.0
2017-Dec-07 07:00N 48°41' W 123°25'0 0.0
2017-Dec-07 06:30N 48°41' W 123°25'0 0.0
2017-Dec-07 06:00N 48°41' W 123°25'0 0.0
2017-Dec-07 05:30N 48°41' W 123°25'0 0.0
2017-Dec-07 05:00N 48°41' W 123°25'0 0.0
2017-Dec-07 04:30N 48°41' W 123°25'0 0.0
2017-Dec-07 04:00N 48°41' W 123°25'0 0.0
2017-Dec-07 03:30N 48°41' W 123°25'0 0.0
2017-Dec-07 03:00N 48°41' W 123°25'0 0.0
2017-Dec-07 02:30N 48°41' W 123°25'0 0.0
2017-Dec-07 01:57N 48°41' W 123°25'0 0.0
2017-Dec-07 01:30N 48°41' W 123°25'0 0.0
2017-Dec-07 01:00N 48°41' W 123°25'0 0.0
2017-Dec-07 00:30N 48°41' W 123°25'0 0.0
2017-Dec-07 00:00N 48°41' W 123°25'0 0.0
2017-Dec-06 23:30N 48°41' W 123°25'0 0.0
2017-Dec-06 23:00N 48°41' W 123°25'0 0.0
2017-Dec-06 22:30N 48°41' W 123°25'0 0.0
2017-Dec-06 22:00N 48°41' W 123°25'0 0.0
2017-Dec-06 21:30N 48°41' W 123°25'0 0.0
2017-Dec-06 21:00N 48°41' W 123°25'  
2017-Dec-04 10:30N 48°41' W 123°25'0 0.0
2017-Dec-04 10:00N 48°41' W 123°25'0 0.0
2017-Dec-04 09:30N 48°41' W 123°25'0 0.0
2017-Dec-04 09:00N 48°41' W 123°25'0 0.0
2017-Dec-04 08:30N 48°41' W 123°25'0 0.0
2017-Dec-04 08:00N 48°41' W 123°25'0 0.0
2017-Dec-04 07:30N 48°41' W 123°25'0 0.0
2017-Dec-04 07:00N 48°41' W 123°25'1 2.4
2017-Dec-04 06:30N 48°42' W 123°23'918.6
2017-Dec-04 06:01N 48°51' W 123°21'816.6
2017-Dec-04 05:30N 48°57' W 123°13'5 9.1
2017-Dec-04 05:00N 49°00' W 123°08'3 5.1
2017-Dec-04 04:30N 48°58' W 123°10'918.2
2017-Dec-04 04:00N 48°51' W 123°19'612.7
2017-Dec-04 03:30N 48°45' W 123°22'4 8.6
2017-Dec-04 03:00N 48°41' W 123°25'0 0.5
2017-Dec-04 02:30N 48°41' W 123°24'816.9
2017-Dec-04 02:00N 48°50' W 123°21'713.0
2017-Dec-04 01:30N 48°55' W 123°15'714.3
2017-Dec-04 01:00N 49°00' W 123°08'0 0.0
2017-Dec-04 00:30N 49°00' W 123°08'815.9
2017-Dec-04 00:00N 48°54' W 123°16'815.0
2017-Dec-03 23:30N 48°48' W 123°21'713.3
2017-Dec-03 23:00N 48°41' W 123°25'0 0.0
2017-Dec-03 22:31N 48°41' W 123°25'714.5
2017-Dec-03 22:00N 48°48' W 123°21'714.3
2017-Dec-03 21:30N 48°55' W 123°16'815.5
2017-Dec-03 21:00N 49°00' W 123°08'0 0.0
2017-Dec-03 20:30N 49°00' W 123°08'714.8
2017-Dec-03 20:00N 48°55' W 123°15'815.3
2017-Dec-03 19:31N 48°48' W 123°20'714.0
2017-Dec-03 19:00N 48°41' W 123°25'0 0.2
2017-Dec-03 18:30N 48°41' W 123°25'713.9
2017-Dec-03 18:00N 48°48' W 123°21'815.2
2017-Dec-03 17:30N 48°55' W 123°16'815.1
2017-Dec-03 17:00N 49°00' W 123°08'0 0.0
2017-Dec-03 16:30N 49°00' W 123°08'815.3
2017-Dec-03 16:00N 48°54' W 123°15'714.3
2017-Dec-03 15:29N 48°48' W 123°21'714.5
2017-Dec-03 15:00N 48°41' W 123°25'0 0.1
2017-Dec-03 14:31N 48°41' W 123°25'0 0.0
2017-Dec-03 14:00N 48°41' W 123°25'0 0.0
2017-Dec-03 13:31N 48°41' W 123°25'0 0.0
2017-Dec-03 13:00N 48°41' W 123°25'0 0.0
2017-Dec-03 12:30N 48°41' W 123°25'0 0.0
2017-Dec-03 12:01N 48°41' W 123°25'0 0.0
2017-Dec-03 11:30N 48°41' W 123°25'0 0.0
2017-Dec-03 11:01N 48°41' W 123°25'0 0.0
2017-Dec-03 10:30N 48°41' W 123°25'0 0.0
2017-Dec-03 10:00N 48°41' W 123°25'0 0.0
2017-Dec-03 09:30N 48°41' W 123°25'0 0.0
2017-Dec-03 09:00N 48°41' W 123°25'0 0.0
2017-Dec-03 08:31N 48°41' W 123°25'0 0.0
2017-Dec-03 08:00N 48°41' W 123°25'0 0.0
2017-Dec-03 07:30N 48°41' W 123°25'0 0.0
2017-Dec-03 07:00N 48°41' W 123°25'0 0.5
2017-Dec-03 06:30N 48°41' W 123°24'916.9
2017-Dec-03 06:00N 48°50' W 123°20'612.1
2017-Dec-03 05:29N 48°55' W 123°16'715.3
2017-Dec-03 05:00N 49°00' W 123°08'0 0.1
2017-Dec-03 04:30N 49°00' W 123°08'816.0
2017-Dec-03 04:00N 48°54' W 123°16'713.5
2017-Dec-03 03:30N 48°48' W 123°21'714.6
2017-Dec-03 03:01N 48°41' W 123°25'0 0.0
2017-Dec-03 02:31N 48°41' W 123°25'713.7
2017-Dec-03 02:00N 48°48' W 123°21'916.5
2017-Dec-03 01:28N 48°56' W 123°15'714.0
2017-Dec-03 01:00N 49°00' W 123°08'0 0.0
2017-Dec-03 00:30N 49°00' W 123°08'916.6
2017-Dec-02 23:59N 48°54' W 123°16'714.4
2017-Dec-02 23:30N 48°47' W 123°21'613.1
2017-Dec-02 23:00N 48°41' W 123°25'0 0.2
2017-Dec-02 22:31N 48°41' W 123°25'816.1
2017-Dec-02 22:00N 48°49' W 123°21'714.0
2017-Dec-02 21:30N 48°55' W 123°16'714.0
2017-Dec-02 21:00N 49°00' W 123°08'0 0.6
2017-Dec-02 20:31N 49°00' W 123°08'1019.0
2017-Dec-02 20:00N 48°53' W 123°18'815.8
2017-Dec-02 19:31N 48°45' W 123°21'5 9.4
2017-Dec-02 19:01N 48°41' W 123°25'0 0.2
2017-Dec-02 18:30N 48°41' W 123°25'815.8
2017-Dec-02 18:01N 48°49' W 123°20'713.7
2017-Dec-02 17:30N 48°55' W 123°16'714.9
2017-Dec-02 17:00N 49°00' W 123°08'0 0.0
2017-Dec-02 16:30N 49°00' W 123°08'816.4
2017-Dec-02 16:00N 48°54' W 123°16'713.7
2017-Dec-02 15:30N 48°48' W 123°21'714.2
2017-Dec-02 15:00N 48°41' W 123°25'0 0.0
2017-Dec-02 14:30N 48°41' W 123°25'0 0.0
2017-Dec-02 14:00N 48°41' W 123°25'0 0.0
2017-Dec-02 13:30N 48°41' W 123°25'0 0.0
2017-Dec-02 13:00N 48°41' W 123°25'0 0.0
2017-Dec-02 12:30N 48°41' W 123°25'0 0.0
2017-Dec-02 12:00N 48°41' W 123°25'0 0.0
2017-Dec-02 11:30N 48°41' W 123°25'0 0.0
2017-Dec-02 11:00N 48°41' W 123°25'0 0.0
2017-Dec-02 10:30N 48°41' W 123°25'0 0.0
2017-Dec-02 10:00N 48°41' W 123°25'0 0.0
2017-Dec-02 09:30N 48°41' W 123°25'0 0.0
2017-Dec-02 09:00N 48°41' W 123°25'0 0.0
2017-Dec-02 08:30N 48°41' W 123°25'0 0.0
2017-Dec-02 08:00N 48°41' W 123°25'0 0.0
2017-Dec-02 07:30N 48°41' W 123°25'0 0.0
2017-Dec-02 07:00N 48°41' W 123°25'0 0.7
2017-Dec-02 06:31N 48°41' W 123°24'816.3
2017-Dec-02 06:00N 48°49' W 123°21'715.1
2017-Dec-02 05:30N 48°56' W 123°15'612.8
2017-Dec-02 05:01N 49°00' W 123°08'1 1.0
2017-Dec-02 04:30N 48°60' W 123°08'1019.6
2017-Dec-02 04:00N 48°52' W 123°18'714.7
2017-Dec-02 03:31N 48°46' W 123°22'5 9.1
2017-Dec-02 03:00N 48°41' W 123°25'1 2.5
2017-Dec-02 02:31N 48°42' W 123°23'918.3
2017-Dec-02 02:00N 48°51' W 123°21'816.8
2017-Dec-02 01:31N 48°57' W 123°13'5 9.4
2017-Dec-02 01:00N 49°00' W 123°08'1 2.8
2017-Dec-02 00:30N 48°59' W 123°09'1019.2
2017-Dec-02 00:00N 48°52' W 123°18'714.8
2017-Dec-01 23:31N 48°45' W 123°23'4 7.8
2017-Dec-01 23:00N 48°41' W 123°25'0 0.6
2017-Dec-01 22:30N 48°41' W 123°24'917.0
2017-Dec-01 22:01N 48°50' W 123°21'714.5
2017-Dec-01 21:30N 48°56' W 123°15'612.7
2017-Dec-01 21:00N 49°00' W 123°08'0 0.3
2017-Dec-01 20:30N 49°00' W 123°08'918.8
2017-Dec-01 20:00N 48°53' W 123°17'714.4
2017-Dec-01 19:30N 48°46' W 123°21'611.1
2017-Dec-01 19:00N 48°41' W 123°25'0 0.7
2017-Dec-01 18:30N 48°41' W 123°24'816.2
2017-Dec-01 18:00N 48°49' W 123°21'714.3
2017-Dec-01 17:30N 48°56' W 123°15'  
Track history (hours):
 
Tides and Currents Weather Stations Pressure Air Temp Water Temp Dewpoint Dewpoint Depression Visibility Wind Speed Wind Dir Waves Ship Positions

Spirit Of Vi

Last reported at 2017-Dec-11 17:00 UTC. Time now 2017-Dec-14 15:09 UTC.
Position N 49°00' W 123°08'.

Length 168 m; draft 5 m.

Type: Ship. MMSI: 316001269.

Date/timePositionNaut miles runAvg speedWind from/ knotsBaromVisibWave heightAir tempDewpointWater temp
2017-Dec-11 17:00N 49°00' W 123°08'0 0.0
2017-Dec-11 16:30N 49°00' W 123°08'713.5
2017-Dec-11 16:01N 48°55' W 123°14'816.1
2017-Dec-11 15:31N 48°48' W 123°21'7 0.8
2017-Dec-11 06:22N 48°41' W 123°24'616.4
2017-Dec-11 06:00N 48°47' W 123°21'815.6
2017-Dec-11 05:30N 48°54' W 123°16'816.2
2017-Dec-11 05:00N 49°00' W 123°08'0 0.2
2017-Dec-11 04:30N 49°00' W 123°08'815.5
2017-Dec-11 04:00N 48°54' W 123°15'815.7
2017-Dec-11 03:29N 48°47' W 123°21'6 5.4
2017-Dec-11 02:25N 48°42' W 123°24'717.5
2017-Dec-11 02:00N 48°48' W 123°21'816.2
2017-Dec-11 01:30N 48°55' W 123°15'713.6
2017-Dec-11 01:00N 49°00' W 123°08'0 0.1
2017-Dec-11 00:30N 49°00' W 123°08'917.5
2017-Dec-11 00:00N 48°54' W 123°17'714.7
2017-Dec-10 23:30N 48°47' W 123°21'6 5.2
2017-Dec-10 22:25N 48°42' W 123°24'717.0
2017-Dec-10 22:00N 48°48' W 123°21'816.8
2017-Dec-10 21:31N 48°56' W 123°15'713.0
2017-Dec-10 21:00N 49°00' W 123°08'0 0.2
2017-Dec-10 20:30N 49°00' W 123°08'917.6
2017-Dec-10 20:00N 48°53' W 123°17'713.5
2017-Dec-10 19:30N 48°47' W 123°21'6 6.0
2017-Dec-10 18:27N 48°41' W 123°25'714.8
2017-Dec-10 18:00N 48°47' W 123°21'915.5
2017-Dec-10 17:27N 48°55' W 123°16'713.8
2017-Dec-10 16:57N 49°00' W 123°08'0 0.1
2017-Dec-10 16:30N 49°00' W 123°08'816.7
2017-Dec-10 16:00N 48°54' W 123°16'612.9
2017-Dec-10 15:30N 48°48' W 123°21'7 0.8
2017-Dec-10 06:23N 48°41' W 123°24'616.2
2017-Dec-10 06:01N 48°47' W 123°21'816.3
2017-Dec-10 05:30N 48°55' W 123°16'815.4
2017-Dec-10 05:00N 49°00' W 123°08'0 0.0
2017-Dec-10 04:31N 49°00' W 123°08'815.0
2017-Dec-10 04:01N 48°54' W 123°15'815.6
2017-Dec-10 03:30N 48°48' W 123°21'6 6.0
2017-Dec-10 02:26N 48°42' W 123°24'717.0
2017-Dec-10 02:01N 48°48' W 123°21'815.0
2017-Dec-10 01:30N 48°55' W 123°16'714.7
2017-Dec-10 01:00N 49°00' W 123°08'0 0.0
2017-Dec-10 00:30N 49°00' W 123°08'816.0
2017-Dec-10 00:00N 48°54' W 123°16'715.0
2017-Dec-09 23:30N 48°47' W 123°21'6 6.2
2017-Dec-09 22:29N 48°42' W 123°24'817.3
2017-Dec-09 22:00N 48°49' W 123°21'816.7
2017-Dec-09 21:30N 48°56' W 123°14'510.9
2017-Dec-09 21:00N 49°00' W 123°08'1 2.9
2017-Dec-09 20:30N 48°59' W 123°09'918.9
2017-Dec-09 20:00N 48°52' W 123°18'714.3
2017-Dec-09 19:30N 48°45' W 123°22'4 4.0
2017-Dec-09 18:27N 48°41' W 123°25'714.7
2017-Dec-09 18:00N 48°48' W 123°21'815.7
2017-Dec-09 17:30N 48°55' W 123°16'815.3
2017-Dec-09 17:00N 49°00' W 123°08'0 0.0
2017-Dec-09 16:30N 49°00' W 123°08'714.6
2017-Dec-09 16:00N 48°55' W 123°15'815.5
2017-Dec-09 15:31N 48°48' W 123°21'7 0.8
2017-Dec-09 06:22N 48°41' W 123°24'616.8
2017-Dec-09 06:00N 48°47' W 123°21'816.4
2017-Dec-09 05:30N 48°55' W 123°16'815.7
2017-Dec-09 05:00N 49°00' W 123°08'0 0.0
2017-Dec-09 04:30N 49°00' W 123°08'815.9
2017-Dec-09 04:00N 48°54' W 123°15'815.1
2017-Dec-09 03:30N 48°48' W 123°21'7 6.1
2017-Dec-09 02:27N 48°42' W 123°24'717.2
2017-Dec-09 02:01N 48°49' W 123°21'815.1
2017-Dec-09 01:30N 48°55' W 123°15'713.9
2017-Dec-09 01:01N 49°00' W 123°08'0 0.2
2017-Dec-09 00:30N 49°00' W 123°08'918.1
2017-Dec-09 00:00N 48°53' W 123°17'816.1
2017-Dec-08 23:30N 48°46' W 123°22'5 5.6
2017-Dec-08 22:36N 48°41' W 123°25'1 5.7
2017-Dec-08 22:30N 48°42' W 123°24'917.8
2017-Dec-08 22:00N 48°50' W 123°21'917.4
2017-Dec-08 21:30N 48°57' W 123°13'4 9.1
2017-Dec-08 21:00N 49°00' W 123°08'2 3.1
2017-Dec-08 20:30N 48°59' W 123°09'918.8
2017-Dec-08 20:01N 48°52' W 123°18'712.4
2017-Dec-08 19:29N 48°46' W 123°21'5 4.7
2017-Dec-08 18:27N 48°41' W 123°25'715.5
2017-Dec-08 18:00N 48°48' W 123°21'714.5
2017-Dec-08 17:31N 48°55' W 123°17'815.9
2017-Dec-08 17:00N 49°00' W 123°08'0 0.1
2017-Dec-08 16:30N 49°00' W 123°08'814.3
2017-Dec-08 15:59N 48°54' W 123°15'715.7
2017-Dec-08 15:30N 48°48' W 123°21'7 0.8
2017-Dec-08 06:24N 48°41' W 123°24'716.7
2017-Dec-08 06:00N 48°48' W 123°21'815.9
2017-Dec-08 05:30N 48°55' W 123°16'714.9
2017-Dec-08 05:00N 49°00' W 123°08'0 0.0
2017-Dec-08 04:30N 49°00' W 123°08'816.6
2017-Dec-08 04:00N 48°54' W 123°16'714.1
2017-Dec-08 03:30N 48°48' W 123°21'7 6.5
2017-Dec-08 02:27N 48°41' W 123°24'716.6
2017-Dec-08 02:00N 48°49' W 123°21'714.9
2017-Dec-08 01:30N 48°55' W 123°15'714.4
2017-Dec-08 01:00N 49°00' W 123°08'0 0.3
2017-Dec-08 00:30N 49°00' W 123°08'918.5
2017-Dec-08 00:00N 48°53' W 123°17'815.7
2017-Dec-07 23:30N 48°46' W 123°21'5 4.7
2017-Dec-07 22:30N 48°42' W 123°24'917.8
2017-Dec-07 22:00N 48°50' W 123°21'816.3
2017-Dec-07 21:30N 48°57' W 123°14'5 9.9
2017-Dec-07 20:59N 49°00' W 123°08'0 0.8
2017-Dec-07 20:31N 49°00' W 123°08'918.6
2017-Dec-07 20:00N 48°53' W 123°18'713.7
2017-Dec-07 19:30N 48°47' W 123°21'5 5.1
2017-Dec-07 18:27N 48°42' W 123°24'715.9
2017-Dec-07 18:00N 48°48' W 123°21'815.0
2017-Dec-07 17:30N 48°55' W 123°16'714.9
2017-Dec-07 17:01N 49°00' W 123°08'0 0.1
2017-Dec-07 16:30N 49°00' W 123°08'816.5
2017-Dec-07 16:00N 48°54' W 123°16'815.6
2017-Dec-07 15:30N 48°47' W 123°21'612.2
2017-Dec-07 15:01N 48°41' W 123°25'0 0.0
2017-Dec-07 14:31N 48°41' W 123°25'0 0.0
2017-Dec-07 14:00N 48°41' W 123°25'0 0.0
2017-Dec-07 13:30N 48°41' W 123°25'0 0.0
2017-Dec-07 13:00N 48°41' W 123°25'0 0.0
2017-Dec-07 12:30N 48°41' W 123°25'0 0.0
2017-Dec-07 12:00N 48°41' W 123°25'0 0.0
2017-Dec-07 11:30N 48°41' W 123°25'0 0.0
2017-Dec-07 11:00N 48°41' W 123°25'0 0.0
2017-Dec-07 10:27N 48°41' W 123°25'0 0.0
2017-Dec-07 10:00N 48°41' W 123°25'0 0.0
2017-Dec-07 09:30N 48°41' W 123°25'0 0.0
2017-Dec-07 09:00N 48°41' W 123°25'0 0.0
2017-Dec-07 08:30N 48°41' W 123°25'0 0.0
2017-Dec-07 08:00N 48°41' W 123°25'0 0.0
2017-Dec-07 07:30N 48°41' W 123°25'0 0.0
2017-Dec-07 07:00N 48°41' W 123°25'0 0.0
2017-Dec-07 06:30N 48°41' W 123°25'0 0.0
2017-Dec-07 06:00N 48°41' W 123°25'0 0.0
2017-Dec-07 05:30N 48°41' W 123°25'0 0.0
2017-Dec-07 05:00N 48°41' W 123°25'0 0.0
2017-Dec-07 04:30N 48°41' W 123°25'0 0.0
2017-Dec-07 04:00N 48°41' W 123°25'0 0.0
2017-Dec-07 03:30N 48°41' W 123°25'0 0.0
2017-Dec-07 03:00N 48°41' W 123°25'0 0.0
2017-Dec-07 02:30N 48°41' W 123°25'0 0.0
2017-Dec-07 01:57N 48°41' W 123°25'0 0.0
2017-Dec-07 01:30N 48°41' W 123°25'0 0.0
2017-Dec-07 01:00N 48°41' W 123°25'0 0.0
2017-Dec-07 00:30N 48°41' W 123°25'0 0.0
2017-Dec-07 00:00N 48°41' W 123°25'0 0.0
2017-Dec-06 23:30N 48°41' W 123°25'0 0.0
2017-Dec-06 23:00N 48°41' W 123°25'0 0.0
2017-Dec-06 22:30N 48°41' W 123°25'0 0.0
2017-Dec-06 22:00N 48°41' W 123°25'0 0.0
2017-Dec-06 21:30N 48°41' W 123°25'0 0.0
2017-Dec-06 21:00N 48°41' W 123°25'  
2017-Dec-04 10:30N 48°41' W 123°25'0 0.0
2017-Dec-04 10:00N 48°41' W 123°25'0 0.0
2017-Dec-04 09:30N 48°41' W 123°25'0 0.0
2017-Dec-04 09:00N 48°41' W 123°25'0 0.0
2017-Dec-04 08:30N 48°41' W 123°25'0 0.0
2017-Dec-04 08:00N 48°41' W 123°25'0 0.0
2017-Dec-04 07:30N 48°41' W 123°25'0 0.0
2017-Dec-04 07:00N 48°41' W 123°25'1 2.4
2017-Dec-04 06:30N 48°42' W 123°23'918.6
2017-Dec-04 06:01N 48°51' W 123°21'816.6
2017-Dec-04 05:30N 48°57' W 123°13'5 9.1
2017-Dec-04 05:00N 49°00' W 123°08'3 5.1
2017-Dec-04 04:30N 48°58' W 123°10'918.2
2017-Dec-04 04:00N 48°51' W 123°19'612.7
2017-Dec-04 03:30N 48°45' W 123°22'4 8.6
2017-Dec-04 03:00N 48°41' W 123°25'0 0.5
2017-Dec-04 02:30N 48°41' W 123°24'816.9
2017-Dec-04 02:00N 48°50' W 123°21'713.0
2017-Dec-04 01:30N 48°55' W 123°15'714.3
2017-Dec-04 01:00N 49°00' W 123°08'0 0.0
2017-Dec-04 00:30N 49°00' W 123°08'815.9
2017-Dec-04 00:00N 48°54' W 123°16'815.0
2017-Dec-03 23:30N 48°48' W 123°21'713.3
2017-Dec-03 23:00N 48°41' W 123°25'0 0.0
2017-Dec-03 22:31N 48°41' W 123°25'714.5
2017-Dec-03 22:00N 48°48' W 123°21'714.3
2017-Dec-03 21:30N 48°55' W 123°16'815.5
2017-Dec-03 21:00N 49°00' W 123°08'0 0.0
2017-Dec-03 20:30N 49°00' W 123°08'714.8
2017-Dec-03 20:00N 48°55' W 123°15'815.3
2017-Dec-03 19:31N 48°48' W 123°20'714.0
2017-Dec-03 19:00N 48°41' W 123°25'0 0.2
2017-Dec-03 18:30N 48°41' W 123°25'713.9
2017-Dec-03 18:00N 48°48' W 123°21'815.2
2017-Dec-03 17:30N 48°55' W 123°16'815.1
2017-Dec-03 17:00N 49°00' W 123°08'0 0.0
2017-Dec-03 16:30N 49°00' W 123°08'815.3
2017-Dec-03 16:00N 48°54' W 123°15'714.3
2017-Dec-03 15:29N 48°48' W 123°21'714.5
2017-Dec-03 15:00N 48°41' W 123°25'0 0.1
2017-Dec-03 14:31N 48°41' W 123°25'0 0.0
2017-Dec-03 14:00N 48°41' W 123°25'0 0.0
2017-Dec-03 13:31N 48°41' W 123°25'0 0.0
2017-Dec-03 13:00N 48°41' W 123°25'0 0.0
2017-Dec-03 12:30N 48°41' W 123°25'0 0.0
2017-Dec-03 12:01N 48°41' W 123°25'0 0.0
2017-Dec-03 11:30N 48°41' W 123°25'0 0.0
2017-Dec-03 11:01N 48°41' W 123°25'0 0.0
2017-Dec-03 10:30N 48°41' W 123°25'0 0.0
2017-Dec-03 10:00N 48°41' W 123°25'0 0.0
2017-Dec-03 09:30N 48°41' W 123°25'0 0.0
2017-Dec-03 09:00N 48°41' W 123°25'0 0.0
2017-Dec-03 08:31N 48°41' W 123°25'0 0.0
2017-Dec-03 08:00N 48°41' W 123°25'0 0.0
2017-Dec-03 07:30N 48°41' W 123°25'0 0.0
2017-Dec-03 07:00N 48°41' W 123°25'0 0.5
2017-Dec-03 06:30N 48°41' W 123°24'916.9
2017-Dec-03 06:00N 48°50' W 123°20'612.1
2017-Dec-03 05:29N 48°55' W 123°16'715.3
2017-Dec-03 05:00N 49°00' W 123°08'0 0.1
2017-Dec-03 04:30N 49°00' W 123°08'816.0
2017-Dec-03 04:00N 48°54' W 123°16'713.5
2017-Dec-03 03:30N 48°48' W 123°21'714.6
2017-Dec-03 03:01N 48°41' W 123°25'0 0.0
2017-Dec-03 02:31N 48°41' W 123°25'713.7
2017-Dec-03 02:00N 48°48' W 123°21'916.5
2017-Dec-03 01:28N 48°56' W 123°15'714.0
2017-Dec-03 01:00N 49°00' W 123°08'0 0.0
2017-Dec-03 00:30N 49°00' W 123°08'916.6
2017-Dec-02 23:59N 48°54' W 123°16'714.4
2017-Dec-02 23:30N 48°47' W 123°21'613.1
2017-Dec-02 23:00N 48°41' W 123°25'0 0.2
2017-Dec-02 22:31N 48°41' W 123°25'816.1
2017-Dec-02 22:00N 48°49' W 123°21'714.0
2017-Dec-02 21:30N 48°55' W 123°16'714.0
2017-Dec-02 21:00N 49°00' W 123°08'0 0.6
2017-Dec-02 20:31N 49°00' W 123°08'1019.0
2017-Dec-02 20:00N 48°53' W 123°18'815.8
2017-Dec-02 19:31N 48°45' W 123°21'5 9.4
2017-Dec-02 19:01N 48°41' W 123°25'0 0.2
2017-Dec-02 18:30N 48°41' W 123°25'815.8
2017-Dec-02 18:01N 48°49' W 123°20'713.7
2017-Dec-02 17:30N 48°55' W 123°16'714.9
2017-Dec-02 17:00N 49°00' W 123°08'0 0.0
2017-Dec-02 16:30N 49°00' W 123°08'816.4
2017-Dec-02 16:00N 48°54' W 123°16'713.7
2017-Dec-02 15:30N 48°48' W 123°21'714.2
2017-Dec-02 15:00N 48°41' W 123°25'0 0.0
2017-Dec-02 14:30N 48°41' W 123°25'0 0.0
2017-Dec-02 14:00N 48°41' W 123°25'0 0.0
2017-Dec-02 13:30N 48°41' W 123°25'0 0.0
2017-Dec-02 13:00N 48°41' W 123°25'0 0.0
2017-Dec-02 12:30N 48°41' W 123°25'0 0.0
2017-Dec-02 12:00N 48°41' W 123°25'0 0.0
2017-Dec-02 11:30N 48°41' W 123°25'0 0.0
2017-Dec-02 11:00N 48°41' W 123°25'0 0.0
2017-Dec-02 10:30N 48°41' W 123°25'0 0.0
2017-Dec-02 10:00N 48°41' W 123°25'0 0.0
2017-Dec-02 09:30N 48°41' W 123°25'0 0.0
2017-Dec-02 09:00N 48°41' W 123°25'0 0.0
2017-Dec-02 08:30N 48°41' W 123°25'0 0.0
2017-Dec-02 08:00N 48°41' W 123°25'0 0.0
2017-Dec-02 07:30N 48°41' W 123°25'0 0.0
2017-Dec-02 07:00N 48°41' W 123°25'0 0.7
2017-Dec-02 06:31N 48°41' W 123°24'816.3
2017-Dec-02 06:00N 48°49' W 123°21'715.1
2017-Dec-02 05:30N 48°56' W 123°15'612.8
2017-Dec-02 05:01N 49°00' W 123°08'1 1.0
2017-Dec-02 04:30N 48°60' W 123°08'1019.6
2017-Dec-02 04:00N 48°52' W 123°18'714.7
2017-Dec-02 03:31N 48°46' W 123°22'5 9.1
2017-Dec-02 03:00N 48°41' W 123°25'1 2.5
2017-Dec-02 02:31N 48°42' W 123°23'918.3
2017-Dec-02 02:00N 48°51' W 123°21'816.8
2017-Dec-02 01:31N 48°57' W 123°13'5 9.4
2017-Dec-02 01:00N 49°00' W 123°08'1 2.8
2017-Dec-02 00:30N 48°59' W 123°09'1019.2
2017-Dec-02 00:00N 48°52' W 123°18'714.8
2017-Dec-01 23:31N 48°45' W 123°23'4 7.8
2017-Dec-01 23:00N 48°41' W 123°25'0 0.6
2017-Dec-01 22:30N 48°41' W 123°24'917.0
2017-Dec-01 22:01N 48°50' W 123°21'714.5
2017-Dec-01 21:30N 48°56' W 123°15'612.7
2017-Dec-01 21:00N 49°00' W 123°08'0 0.3
2017-Dec-01 20:30N 49°00' W 123°08'918.8
2017-Dec-01 20:00N 48°53' W 123°17'714.4
2017-Dec-01 19:30N 48°46' W 123°21'611.1
2017-Dec-01 19:00N 48°41' W 123°25'0 0.7
2017-Dec-01 18:30N 48°41' W 123°24'816.2
2017-Dec-01 18:00N 48°49' W 123°21'714.3
2017-Dec-01 17:30N 48°56' W 123°15'  

Dump ship's entire track history